»·PEaware :: CFOOD CEZ3-CYXE

CFOOD :: CEZ3-CYXE

FLIGHT INFORMATION

Flight Status: Arrived
Operator: Unknown
More flights by this operator :: More flights under this callsign
Pilot: Vincent M. (370)
Aircraft: Diamond DA-62
(DA62)
More flights by this aircraft type
Origin: CEZ3 Cooking Lake
Canada
Destination: CYXE Saskatoon/Diefenbaker Intl
Canada
More flights between these airports :: More routes between these airports
Route:
File this flight plan on PilotEdge
Remarks: KOSH LEG #1
Altitude:
(Current/Filed)
4,500ft
Speed:
(Current/Filed)
180kts
Departed: 19-Jul-20 08:33 AM
Arrived: 19-Jul-20 10:03 AM
Distance/Time
Traveled:
245nm/1:29
Distance/Time
To Go:
Arrived

Flight Plot

Page will automatically refresh every two minutes.

Flight plan parsing failed; only flown route is shown


Map Options




Map Legend


Flown Route
Filed Route
Departure Airport
Arrival Airport
Navaid (VOR, NDB)
Fix

Horizontal Profiles

Position Reports

Time Latitude Longitude Heading Altitude Ground
Speed
19-Jul-20 08:21 53.427837 -113.119643 113 2435ft 0kts
19-Jul-20 08:22 53.427837 -113.119643 113 2435ft 0kts
19-Jul-20 08:23 53.427837 -113.119643 113 2435ft 0kts
19-Jul-20 08:24 53.427837 -113.119643 113 2435ft 0kts
19-Jul-20 08:25 53.427837 -113.119643 113 2435ft 0kts
19-Jul-20 08:26 53.427837 -113.119643 113 2435ft 0kts
19-Jul-20 08:27 53.427837 -113.119643 113 2435ft 0kts
19-Jul-20 08:28 53.427640 -113.118688 113 2435ft 18kts
19-Jul-20 08:29 53.427100 -113.115995 24 2435ft 0kts
19-Jul-20 08:30 53.426818 -113.113579 119 2435ft 28kts
19-Jul-20 08:31 53.426103 -113.111395 298 2435ft 39kts
19-Jul-20 08:32 53.445129 -113.141917 347 2826ft 126kts
19-Jul-20 08:33 53.465250 -113.100090 110 3340ft 154kts
19-Jul-20 08:34 53.438489 -113.044970 135 4039ft 151kts
19-Jul-20 08:35 53.411587 -112.989469 117 4504ft 168kts
19-Jul-20 08:36 53.394495 -112.912340 106 4500ft 181kts
19-Jul-20 08:37 53.380413 -112.830564 105 4499ft 183kts
19-Jul-20 08:38 53.366772 -112.748872 105 4499ft 184kts
19-Jul-20 08:39 53.352896 -112.666488 105 4498ft 183kts
19-Jul-20 08:40 53.339045 -112.584261 105 4499ft 184kts
19-Jul-20 08:41 53.325034 -112.502606 106 4497ft 178kts
19-Jul-20 08:42 53.311647 -112.424065 106 4498ft 174kts
19-Jul-20 08:43 53.298330 -112.346169 107 4498ft 173kts
19-Jul-20 08:44 53.285026 -112.268655 107 4497ft 173kts
19-Jul-20 08:45 53.271631 -112.190983 106 4497ft 174kts
19-Jul-20 08:46 53.258163 -112.113173 106 4497ft 174kts
19-Jul-20 08:47 53.244604 -112.035229 106 4505ft 173kts
19-Jul-20 08:48 53.231190 -111.958370 106 4505ft 171kts
19-Jul-20 08:49 53.217809 -111.882082 106 4505ft 171kts
19-Jul-20 08:50 53.204395 -111.805931 106 4505ft 171kts
19-Jul-20 08:51 53.190926 -111.729770 106 4504ft 171kts
19-Jul-20 08:52 53.177327 -111.653269 106 4505ft 173kts
19-Jul-20 08:53 53.163561 -111.576084 106 4505ft 173kts
19-Jul-20 08:54 53.149826 -111.499357 106 4504ft 172kts
19-Jul-20 08:55 53.135967 -111.422483 106 4505ft 173kts
19-Jul-20 08:56 53.122071 -111.345521 106 4505ft 173kts
19-Jul-20 08:57 53.108226 -111.269071 107 4504ft 172kts
19-Jul-20 08:58 53.094245 -111.192318 108 4503ft 174kts
19-Jul-20 08:59 53.080065 -111.114939 108 4503ft 175kts
19-Jul-20 09:00 53.065870 -111.037683 108 4503ft 175kts
19-Jul-20 09:01 53.051591 -110.960292 108 4503ft 175kts
19-Jul-20 09:02 53.037260 -110.882940 108 4503ft 175kts
19-Jul-20 09:03 53.022892 -110.805713 108 4503ft 175kts
19-Jul-20 09:04 53.008434 -110.728329 108 4502ft 175kts
19-Jul-20 09:05 52.993980 -110.651268 108 4502ft 175kts
19-Jul-20 09:06 52.979463 -110.574197 108 4503ft 175kts
19-Jul-20 09:07 52.965159 -110.498739 107 4537ft 174kts
19-Jul-20 09:08 52.950558 -110.421923 105 4538ft 175kts
19-Jul-20 09:09 52.935940 -110.344935 107 4537ft 175kts
19-Jul-20 09:10 52.921251 -110.268146 107 4537ft 175kts
19-Jul-20 09:11 52.906493 -110.191571 106 4536ft 174kts
19-Jul-20 09:12 52.891681 -110.114753 107 4536ft 174kts
19-Jul-20 09:13 52.876881 -110.038402 107 4536ft 174kts
19-Jul-20 09:14 52.861997 -109.961973 107 4536ft 174kts
19-Jul-20 09:15 52.847131 -109.885839 106 4536ft 174kts
19-Jul-20 09:16 52.832420 -109.810581 108 4536ft 174kts
19-Jul-20 09:17 52.817331 -109.734121 108 4536ft 175kts
19-Jul-20 09:18 52.802154 -109.657450 106 4536ft 175kts
19-Jul-20 09:19 52.787065 -109.581136 108 4537ft 175kts
19-Jul-20 09:20 52.771766 -109.504609 107 4537ft 175kts
19-Jul-20 09:21 52.756496 -109.428107 107 4537ft 175kts
19-Jul-20 09:22 52.741292 -109.352450 107 4555ft 176kts
19-Jul-20 09:23 52.725626 -109.274771 107 4424ft 182kts
19-Jul-20 09:24 52.710056 -109.197677 108 3551ft 183kts
19-Jul-20 09:25 52.694329 -109.120256 107 3054ft 171kts
19-Jul-20 09:26 52.679002 -109.045034 108 3054ft 173kts
19-Jul-20 09:27 52.663552 -108.969532 108 3027ft 174kts
19-Jul-20 09:28 52.647996 -108.893909 109 3027ft 174kts
19-Jul-20 09:29 52.632412 -108.818480 108 3027ft 174kts
19-Jul-20 09:30 52.616779 -108.743289 107 3027ft 173kts
19-Jul-20 09:31 52.601178 -108.668013 107 3027ft 174kts
19-Jul-20 09:32 52.585459 -108.592628 107 3028ft 174kts
19-Jul-20 09:34 52.569744 -108.517565 106 3027ft 173kts
19-Jul-20 09:35 52.553999 -108.442427 108 3028ft 174kts
19-Jul-20 09:36 52.538118 -108.367242 108 3030ft 174kts
19-Jul-20 09:37 52.522230 -108.292110 109 3033ft 174kts
19-Jul-20 09:38 52.506244 -108.217041 109 3033ft 174kts
19-Jul-20 09:39 52.490153 -108.141737 108 3034ft 174kts
19-Jul-20 09:40 52.474111 -108.066711 108 3038ft 174kts
19-Jul-20 09:41 52.458021 -107.991839 109 3039ft 174kts
19-Jul-20 09:42 52.441852 -107.916924 109 3032ft 174kts
19-Jul-20 09:43 52.425654 -107.841803 110 3028ft 174kts
19-Jul-20 09:44 52.409398 -107.767110 109 3026ft 174kts
19-Jul-20 09:45 52.393110 -107.692429 110 3023ft 174kts
19-Jul-20 09:46 52.376673 -107.617402 110 3025ft 174kts
19-Jul-20 09:47 52.360587 -107.544401 108 3031ft 174kts
19-Jul-20 09:47 52.347000 -107.482621 108 3035ft 173kts
19-Jul-20 09:49 52.327824 -107.395874 110 3042ft 173kts
19-Jul-20 09:50 52.311344 -107.321883 109 3046ft 173kts
19-Jul-20 09:50 52.297610 -107.260077 110 3045ft 173kts
19-Jul-20 09:52 52.281627 -107.172325 103 3045ft 172kts
19-Jul-20 09:53 52.270567 -107.096146 103 2976ft 173kts
19-Jul-20 09:53 52.261755 -107.033281 102 2608ft 164kts
19-Jul-20 09:54 52.253735 -106.963137 99 2600ft 156kts
19-Jul-20 09:56 52.244597 -106.882332 104 2598ft 151kts
19-Jul-20 09:56 52.236205 -106.827248 102 2598ft 149kts
19-Jul-20 09:57 52.214913 -106.769963 130 2600ft 149kts
19-Jul-20 09:58 52.205153 -106.706421 100 2618ft 131kts
19-Jul-20 09:59 52.196471 -106.655323 104 2650ft 107kts
19-Jul-20 10:00 52.177700 -106.638873 240 2096ft 92kts
19-Jul-20 10:01 52.173758 -106.678089 281 1716ft 87kts
19-Jul-20 10:02 52.175105 -106.698088 161 1655ft 0kts
19-Jul-20 10:03 52.170129 -106.694240 24 1655ft 0kts
19-Jul-20 10:04 52.170129 -106.694240 24 1655ft 0kts
19-Jul-20 10:05 52.170129 -106.694240 24 1655ft 0kts

Navigation Log

Ident Type
Flight plan parsing failed, navigation log unavailable